createdAt,value
2023-03-29T00:00:43.273Z,2.17
2023-03-29T00:03:14.714Z,4.15
2023-03-29T00:05:44.861Z,6.07
2023-03-29T00:08:14.797Z,9.35
2023-03-29T00:10:46.144Z,1.48
2023-03-29T00:13:16.619Z,3.20
2023-03-29T00:15:49.856Z,2.40
2023-03-29T00:18:19.750Z,3.45
2023-03-29T00:20:50.308Z,3.25
2023-03-29T00:23:19.297Z,1.85
2023-03-29T00:25:47.855Z,3.92
2023-03-29T00:28:16.389Z,2.72
2023-03-29T00:30:44.829Z,2.03
2023-03-29T00:33:13.600Z,3.28
2023-03-29T00:35:46.374Z,4.22
2023-03-29T00:38:14.970Z,2.65
2023-03-29T00:40:44.435Z,2.33
2023-03-29T00:43:15.961Z,2.10
2023-03-29T00:45:49.047Z,1.92
2023-03-29T00:48:18.702Z,3.40
2023-03-29T00:50:50.812Z,2.92
2023-03-29T00:53:26.210Z,3.88
2023-03-29T00:55:56.270Z,3.92
2023-03-29T00:58:26.743Z,2.60
2023-03-29T01:00:58.221Z,3.30
2023-03-29T01:03:35.266Z,2.72
2023-03-29T01:06:07.966Z,3.15
2023-03-29T01:08:41.240Z,3.67
2023-03-29T01:11:16.974Z,3.67
2023-03-29T01:13:50.522Z,3.13
2023-03-29T01:16:20.149Z,3.55
2023-03-29T01:18:52.282Z,4.25
2023-03-29T01:21:24.744Z,3.35
2023-03-29T01:24:07.066Z,4.32
2023-03-29T01:26:43.749Z,5.13
2023-03-29T01:29:18.003Z,6.10
2023-03-29T01:31:47.641Z,5.40
2023-03-29T01:34:19.224Z,4.10
2023-03-29T01:36:50.507Z,4.72
2023-03-29T01:39:20.595Z,5.50
2023-03-29T01:41:54.741Z,3.67
2023-03-29T01:44:31.399Z,6.60
2023-03-29T01:47:06.677Z,5.15
2023-03-29T01:49:38.082Z,5.18
2023-03-29T01:52:10.356Z,3.67
2023-03-29T01:54:42.661Z,8.20
2023-03-29T01:57:16.666Z,7.25
2023-03-29T01:59:48.447Z,3.63
2023-03-29T02:02:18.121Z,4.82
2023-03-29T02:04:52.296Z,4.35
2023-03-29T02:07:22.980Z,6.47
2023-03-29T02:09:52.735Z,4.82
2023-03-29T02:12:22.344Z,3.58
2023-03-29T02:14:52.157Z,4.90
2023-03-29T02:17:21.765Z,3.38
2023-03-29T02:19:51.411Z,3.47
2023-03-29T02:22:28.535Z,4.13
2023-03-29T02:24:59.450Z,4.40
2023-03-29T02:27:39.289Z,4.57
2023-03-29T02:30:12.978Z,4.53
2023-03-29T02:32:49.002Z,4.00
2023-03-29T02:35:20.711Z,3.65
2023-03-29T02:37:51.458Z,3.65
2023-03-29T02:40:22.613Z,7.78
2023-03-29T02:42:51.827Z,4.18
2023-03-29T02:45:22.137Z,5.85
2023-03-29T02:47:56.948Z,5.20
2023-03-29T02:50:26.556Z,6.45
2023-03-29T02:52:57.072Z,4.65
2023-03-29T02:55:26.492Z,2.88
2023-03-29T02:58:03.452Z,5.38
2023-03-29T03:00:34.237Z,4.47
2023-03-29T03:03:03.052Z,4.45
2023-03-29T03:05:36.215Z,4.40
2023-03-29T03:08:05.271Z,3.33
2023-03-29T03:10:33.880Z,6.90
2023-03-29T03:13:02.585Z,7.55
2023-03-29T03:15:42.639Z,2.90
2023-03-29T03:18:12.361Z,4.95
2023-03-29T03:20:41.474Z,2.65
2023-03-29T03:23:12.466Z,4.57
2023-03-29T03:25:45.788Z,4.88
2023-03-29T03:28:14.904Z,3.53
2023-03-29T03:30:45.010Z,3.63
2023-03-29T03:33:13.512Z,5.57
2023-03-29T03:36:26.100Z,5.03
2023-03-29T03:38:55.208Z,4.72
2023-03-29T03:41:24.071Z,9.88
2023-03-29T03:43:52.627Z,3.40
2023-03-29T03:46:23.030Z,5.20
2023-03-29T03:48:52.124Z,5.32
2023-03-29T03:51:24.391Z,4.63
2023-03-29T03:53:53.402Z,3.85
2023-03-29T03:56:34.448Z,5.18
2023-03-29T03:59:09.379Z,4.07
2023-03-29T04:01:55.163Z,8.05
2023-03-29T04:04:25.935Z,4.30
2023-03-29T04:07:25.530Z,4.15
2023-03-29T04:10:15.805Z,3.95
2023-03-29T04:13:07.399Z,7.05
2023-03-29T04:15:46.170Z,4.90
2023-03-29T04:18:17.934Z,4.72
2023-03-29T04:20:53.388Z,6.07
2023-03-29T04:23:24.786Z,4.75
2023-03-29T04:25:56.350Z,5.97
2023-03-29T04:28:41.829Z,4.95
2023-03-29T04:31:24.837Z,7.25
2023-03-29T04:34:23.335Z,4.75
2023-03-29T04:36:58.797Z,4.38
2023-03-29T04:39:32.180Z,4.43
2023-03-29T04:42:03.017Z,5.25
2023-03-29T04:44:33.905Z,5.78
2023-03-29T04:47:10.364Z,5.97
2023-03-29T04:49:57.276Z,4.55
2023-03-29T04:52:47.375Z,5.15
2023-03-29T04:55:16.516Z,4.40
2023-03-29T04:57:53.417Z,6.72
2023-03-29T05:00:29.080Z,4.25
2023-03-29T05:03:05.983Z,7.60
2023-03-29T05:05:40.251Z,3.95
2023-03-29T05:08:09.539Z,6.60
2023-03-29T05:11:01.105Z,5.78
2023-03-29T05:13:31.218Z,4.65
2023-03-29T05:16:00.782Z,4.45
2023-03-29T05:18:32.018Z,7.55
2023-03-29T05:21:02.423Z,5.65
2023-03-29T05:23:31.146Z,5.00
2023-03-29T05:26:40.230Z,8.95
2023-03-29T05:29:12.307Z,8.38
2023-03-29T05:31:47.092Z,3.65
2023-03-29T05:34:18.193Z,7.13
2023-03-29T05:36:53.206Z,4.45
2023-03-29T05:39:23.526Z,6.40
2023-03-29T05:41:55.196Z,6.70
2023-03-29T05:44:25.964Z,5.18
2023-03-29T05:47:01.663Z,5.30
2023-03-29T05:49:34.620Z,4.63
2023-03-29T05:52:09.994Z,8.85
2023-03-29T05:54:39.929Z,6.15
2023-03-29T05:57:09.113Z,5.45
2023-03-29T05:59:42.765Z,8.88
2023-03-29T06:02:16.051Z,4.45
2023-03-29T06:04:53.205Z,5.03
2023-03-29T06:07:26.325Z,6.15
2023-03-29T06:10:14.306Z,5.15
2023-03-29T06:12:47.850Z,8.02
2023-03-29T06:15:20.057Z,5.90
2023-03-29T06:17:51.886Z,8.50
2023-03-29T06:20:20.850Z,4.68
2023-03-29T06:22:58.705Z,6.07
2023-03-29T06:25:27.451Z,4.55
2023-03-29T06:27:56.174Z,5.72
2023-03-29T06:30:25.252Z,4.53
2023-03-29T06:32:58.093Z,6.38
2023-03-29T06:35:53.648Z,5.63
2023-03-29T06:38:28.931Z,6.22
2023-03-29T06:41:06.387Z,6.28
2023-03-29T06:43:55.179Z,4.78
2023-03-29T06:46:27.224Z,5.03
2023-03-29T06:49:01.208Z,5.65
2023-03-29T06:51:37.966Z,5.63
2023-03-29T06:54:07.957Z,5.95
2023-03-29T06:56:39.603Z,7.47
2023-03-29T06:59:16.425Z,6.13
2023-03-29T07:01:55.133Z,6.25
2023-03-29T07:04:38.006Z,5.95
2023-03-29T07:07:20.524Z,5.35
2023-03-29T07:09:55.705Z,6.45
2023-03-29T07:12:44.819Z,5.88
2023-03-29T07:15:16.155Z,5.20
2023-03-29T07:18:04.901Z,5.03
2023-03-29T07:20:38.761Z,7.70
2023-03-29T07:23:09.548Z,6.18
2023-03-29T07:25:42.483Z,5.78
2023-03-29T07:28:11.849Z,7.40
2023-03-29T07:30:43.450Z,8.40
2023-03-29T07:33:18.294Z,5.85
2023-03-29T07:36:08.020Z,7.65
2023-03-29T07:38:37.984Z,7.43
2023-03-29T07:41:14.638Z,8.57
2023-03-29T07:43:54.289Z,5.43
2023-03-29T07:46:29.629Z,7.70
2023-03-29T07:48:58.799Z,7.82
2023-03-29T07:51:28.086Z,10.07
2023-03-29T07:54:05.658Z,9.43
2023-03-29T07:56:41.740Z,5.45
2023-03-29T07:59:19.690Z,10.48
2023-03-29T08:01:56.812Z,5.63
2023-03-29T08:04:34.900Z,13.07
2023-03-29T08:07:21.763Z,7.35
2023-03-29T08:10:16.018Z,6.85
2023-03-29T08:12:55.198Z,9.75
2023-03-29T08:15:32.118Z,8.93
2023-03-29T08:18:01.168Z,9.00
2023-03-29T08:20:29.660Z,11.60
2023-03-29T08:23:06.434Z,7.60
2023-03-29T08:25:58.231Z,9.38
2023-03-29T08:28:34.612Z,7.13
2023-03-29T08:31:08.937Z,11.15
2023-03-29T08:33:42.390Z,12.07
2023-03-29T08:36:37.233Z,10.77
2023-03-29T08:39:13.430Z,12.48
2023-03-29T08:41:50.858Z,7.78
2023-03-29T08:44:27.822Z,9.93
2023-03-29T08:47:04.815Z,7.85
2023-03-29T08:49:44.132Z,7.70
2023-03-29T08:52:18.895Z,10.75
2023-03-29T08:54:48.726Z,8.70
2023-03-29T08:57:27.206Z,12.25
2023-03-29T09:00:04.595Z,10.43
2023-03-29T09:02:40.472Z,13.38
2023-03-29T09:05:18.510Z,11.93
2023-03-29T09:07:57.001Z,10.20
2023-03-29T09:10:30.085Z,10.23
2023-03-29T09:13:06.872Z,10.45
2023-03-29T09:15:42.217Z,10.57
2023-03-29T09:18:33.798Z,11.13
2023-03-29T09:21:03.450Z,8.45
2023-03-29T09:23:48.802Z,9.30
2023-03-29T09:26:37.764Z,8.82
2023-03-29T09:29:29.818Z,11.35
2023-03-29T09:32:00.488Z,14.02
2023-03-29T09:34:34.234Z,9.68
2023-03-29T09:37:15.479Z,9.82
2023-03-29T09:39:45.172Z,12.25
2023-03-29T09:42:17.924Z,8.20
2023-03-29T09:44:48.047Z,8.13
2023-03-29T09:47:25.968Z,10.68
2023-03-29T09:49:59.240Z,9.35
2023-03-29T09:52:27.963Z,9.57
2023-03-29T09:55:17.348Z,10.98
2023-03-29T09:58:02.687Z,9.48
2023-03-29T10:00:36.750Z,8.32
2023-03-29T10:03:10.056Z,7.75
2023-03-29T10:05:54.560Z,7.70
2023-03-29T10:08:27.058Z,9.73
2023-03-29T10:10:58.792Z,7.63
2023-03-29T10:13:29.602Z,10.95
2023-03-29T10:15:59.296Z,7.10
2023-03-29T10:18:29.293Z,6.60
2023-03-29T10:21:00.488Z,5.55
2023-03-29T10:23:31.978Z,5.05
2023-03-29T10:26:00.910Z,6.57
2023-03-29T10:28:32.243Z,7.43
2023-03-29T10:31:03.722Z,6.32
2023-03-29T10:33:35.128Z,6.00
2023-03-29T10:36:05.332Z,6.95
2023-03-29T10:38:34.560Z,7.60
2023-03-29T10:41:10.054Z,10.30
2023-03-29T10:43:40.074Z,6.70
2023-03-29T10:46:14.581Z,8.35
2023-03-29T10:48:47.689Z,7.93
2023-03-29T10:51:16.890Z,7.00
2023-03-29T10:53:45.397Z,12.32
2023-03-29T10:56:24.629Z,11.48
2023-03-29T10:59:04.953Z,9.77
2023-03-29T11:01:36.398Z,11.32
2023-03-29T11:04:22.999Z,9.35
2023-03-29T11:06:57.738Z,11.05
2023-03-29T11:09:30.695Z,11.25
2023-03-29T11:12:14.877Z,11.15
2023-03-29T11:14:49.615Z,10.15
2023-03-29T11:17:24.858Z,10.15
2023-03-29T11:20:05.183Z,10.13
2023-03-29T11:22:39.968Z,10.75
2023-03-29T11:25:14.799Z,10.48
2023-03-29T11:27:47.436Z,8.48
2023-03-29T11:30:20.910Z,10.52
2023-03-29T11:32:53.369Z,7.78
2023-03-29T11:35:34.124Z,10.70
2023-03-29T11:38:05.798Z,7.18
2023-03-29T11:40:41.659Z,9.77
2023-03-29T11:43:16.112Z,12.35
2023-03-29T11:45:47.904Z,10.45
2023-03-29T11:48:21.303Z,11.43
2023-03-29T11:50:52.836Z,10.57
2023-03-29T11:53:25.672Z,8.68
2023-03-29T11:55:56.360Z,9.93
2023-03-29T11:58:28.129Z,9.02
2023-03-29T12:00:59.116Z,7.90
2023-03-29T12:03:37.572Z,10.73
2023-03-29T12:06:10.069Z,9.63
2023-03-29T12:08:41.779Z,8.82
2023-03-29T12:11:14.463Z,9.05
2023-03-29T12:13:53.734Z,11.20
2023-03-29T12:16:26.799Z,8.18
2023-03-29T12:18:57.389Z,9.23
2023-03-29T12:21:30.007Z,8.07
2023-03-29T12:23:59.448Z,10.75
2023-03-29T12:26:45.242Z,8.38
2023-03-29T12:29:21.788Z,7.35
2023-03-29T12:31:53.109Z,9.73
2023-03-29T12:34:34.964Z,9.00
2023-03-29T12:37:33.580Z,9.23
2023-03-29T12:40:21.559Z,10.10
2023-03-29T12:43:10.270Z,9.20
2023-03-29T12:46:09.412Z,9.80
2023-03-29T12:48:39.989Z,10.57
2023-03-29T12:51:10.526Z,14.35
2023-03-29T12:53:42.637Z,9.55
2023-03-29T12:56:15.054Z,9.95
2023-03-29T12:58:57.834Z,9.55
2023-03-29T13:01:28.604Z,11.88
2023-03-29T13:04:14.899Z,9.05
2023-03-29T13:07:02.887Z,11.07
2023-03-29T13:09:35.623Z,11.43
2023-03-29T13:12:09.267Z,8.20
2023-03-29T13:14:40.891Z,9.38
2023-03-29T13:17:18.393Z,10.32
2023-03-29T13:19:49.315Z,9.43
2023-03-29T13:22:24.489Z,9.70
2023-03-29T13:25:02.257Z,9.50
2023-03-29T13:27:37.882Z,9.90
2023-03-29T13:30:24.163Z,9.18
2023-03-29T13:32:57.467Z,11.60
2023-03-29T13:35:33.238Z,8.52
2023-03-29T13:38:05.318Z,9.73
2023-03-29T13:40:43.989Z,7.53
2023-03-29T13:43:20.851Z,10.27
2023-03-29T13:45:53.539Z,8.82
2023-03-29T13:48:29.147Z,8.55
2023-03-29T13:51:02.160Z,10.05
2023-03-29T13:53:35.343Z,11.38
2023-03-29T13:56:05.560Z,12.18
2023-03-29T13:58:36.305Z,10.90
2023-03-29T14:01:11.799Z,12.13
2023-03-29T14:03:44.775Z,12.48
2023-03-29T14:06:14.396Z,7.88
2023-03-29T14:08:43.936Z,9.07
2023-03-29T14:11:23.598Z,11.75
2023-03-29T14:13:54.631Z,9.57
2023-03-29T14:16:23.532Z,9.48
2023-03-29T14:18:55.390Z,10.57
2023-03-29T14:21:26.142Z,6.93
2023-03-29T14:23:56.747Z,9.88
2023-03-29T14:26:35.967Z,8.65
2023-03-29T14:29:09.144Z,13.00
2023-03-29T14:31:41.078Z,10.30
2023-03-29T14:34:13.187Z,11.27
2023-03-29T14:36:42.992Z,8.63
2023-03-29T14:39:14.394Z,8.20
2023-03-29T14:41:47.886Z,7.07
2023-03-29T14:44:16.403Z,8.20
2023-03-29T14:46:48.220Z,8.60
2023-03-29T14:49:19.887Z,7.95
2023-03-29T14:51:49.276Z,8.68
2023-03-29T14:54:22.383Z,7.63
2023-03-29T14:56:53.057Z,9.65
2023-03-29T14:59:31.332Z,5.88
2023-03-29T15:02:00.186Z,7.78
2023-03-29T15:04:34.424Z,9.25
2023-03-29T15:07:03.099Z,7.68
2023-03-29T15:09:33.148Z,7.63
2023-03-29T15:12:03.631Z,7.70
2023-03-29T15:14:35.454Z,5.57
2023-03-29T15:17:05.009Z,5.95
2023-03-29T15:19:34.344Z,8.15
2023-03-29T15:22:06.076Z,8.55
2023-03-29T15:24:35.595Z,5.03
2023-03-29T15:27:06.451Z,6.28
2023-03-29T15:29:41.876Z,9.43
2023-03-29T15:32:12.068Z,8.20
2023-03-29T15:34:41.211Z,6.20
2023-03-29T15:37:12.908Z,5.80
2023-03-29T15:39:45.732Z,5.53
2023-03-29T15:42:15.674Z,4.60
2023-03-29T15:44:49.506Z,6.57
2023-03-29T15:47:17.937Z,5.13
2023-03-29T15:49:50.714Z,7.18
2023-03-29T15:52:19.114Z,6.35
2023-03-29T15:54:47.825Z,5.68
2023-03-29T15:57:17.841Z,6.82
2023-03-29T15:59:46.427Z,5.47
2023-03-29T16:02:16.470Z,4.88
2023-03-29T16:04:45.336Z,6.65
2023-03-29T16:07:22.773Z,7.03
2023-03-29T16:09:51.165Z,7.28
2023-03-29T16:12:23.556Z,7.38
2023-03-29T16:14:54.327Z,4.55
2023-03-29T16:17:22.761Z,6.47
2023-03-29T16:19:51.656Z,4.50
2023-03-29T16:22:20.281Z,4.72
2023-03-29T16:24:51.446Z,4.07
2023-03-29T16:27:31.291Z,5.45
2023-03-29T16:30:02.053Z,6.07
2023-03-29T16:32:30.433Z,3.90
2023-03-29T16:34:59.349Z,3.38
2023-03-29T16:37:30.424Z,5.22
2023-03-29T16:39:58.855Z,4.18
2023-03-29T16:42:28.673Z,5.57
2023-03-29T16:44:57.460Z,4.45
2023-03-29T16:47:26.060Z,3.25
2023-03-29T16:49:54.772Z,4.22
2023-03-29T16:52:23.194Z,5.93
2023-03-29T16:54:52.975Z,5.32
2023-03-29T16:57:21.651Z,7.25
2023-03-29T16:59:55.760Z,3.45
2023-03-29T17:02:24.534Z,4.22
2023-03-29T17:04:53.046Z,4.97
2023-03-29T17:07:23.946Z,4.45
2023-03-29T17:09:55.138Z,3.20
2023-03-29T17:12:23.601Z,3.28
2023-03-29T17:14:53.744Z,2.83
2023-03-29T17:17:22.381Z,5.35
2023-03-29T17:19:51.270Z,2.80
2023-03-29T17:22:20.012Z,3.90
2023-03-29T17:24:48.442Z,4.63
2023-03-29T17:27:16.807Z,3.28
2023-03-29T17:29:52.316Z,3.53
2023-03-29T17:32:22.198Z,5.50
2023-03-29T17:34:53.176Z,4.47
2023-03-29T17:37:22.744Z,2.95
2023-03-29T17:39:51.336Z,2.58
2023-03-29T17:42:19.883Z,3.88
2023-03-29T17:44:48.644Z,4.13
2023-03-29T17:47:17.087Z,5.20
2023-03-29T17:49:47.000Z,3.80
2023-03-29T17:52:15.452Z,4.78
2023-03-29T17:54:43.816Z,7.68
2023-03-29T17:57:12.305Z,5.00
2023-03-29T17:59:41.207Z,2.90
2023-03-29T18:02:09.910Z,5.22
2023-03-29T18:04:38.927Z,6.75
2023-03-29T18:07:11.425Z,4.07
2023-03-29T18:09:41.928Z,4.35
2023-03-29T18:12:12.848Z,3.97
2023-03-29T18:14:41.247Z,6.10
2023-03-29T18:17:10.053Z,5.45
2023-03-29T18:19:39.046Z,6.38
2023-03-29T18:22:09.262Z,3.53
2023-03-29T18:24:38.042Z,4.75
2023-03-29T18:27:06.752Z,4.85
2023-03-29T18:29:35.102Z,6.05
2023-03-29T18:32:03.609Z,4.53
2023-03-29T18:34:33.475Z,4.47
2023-03-29T18:37:04.456Z,5.35
2023-03-29T18:39:35.912Z,5.22
2023-03-29T18:42:04.494Z,4.07
2023-03-29T18:44:33.104Z,4.97
2023-03-29T18:47:03.818Z,5.65
2023-03-29T18:49:32.379Z,4.30
2023-03-29T18:52:00.752Z,4.82
2023-03-29T18:54:29.556Z,5.30
2023-03-29T18:57:00.445Z,5.32
2023-03-29T18:59:28.841Z,5.85
2023-03-29T19:01:59.443Z,6.55
2023-03-29T19:04:28.932Z,6.53
2023-03-29T19:06:57.597Z,4.50
2023-03-29T19:09:27.414Z,5.88
2023-03-29T19:11:56.158Z,8.65
2023-03-29T19:14:26.213Z,6.18
2023-03-29T19:16:54.972Z,5.43
2023-03-29T19:19:26.311Z,6.32
2023-03-29T19:21:55.313Z,5.85
2023-03-29T19:24:24.634Z,7.45
2023-03-29T19:26:53.907Z,5.20
2023-03-29T19:29:22.721Z,7.88
2023-03-29T19:31:54.571Z,6.40
2023-03-29T19:34:24.406Z,9.18
2023-03-29T19:36:53.914Z,6.15
2023-03-29T19:39:22.540Z,4.38
2023-03-29T19:41:50.959Z,6.07
2023-03-29T19:44:20.009Z,6.00
2023-03-29T19:46:50.827Z,7.13
2023-03-29T19:49:22.908Z,8.65
2023-03-29T19:51:55.680Z,12.20
2023-03-29T19:54:26.424Z,5.15
2023-03-29T19:56:57.419Z,5.82
2023-03-29T19:59:28.217Z,9.27
2023-03-29T20:01:56.896Z,6.75
2023-03-29T20:04:29.053Z,7.50
2023-03-29T20:06:57.820Z,6.60
2023-03-29T20:09:29.010Z,6.38
2023-03-29T20:11:57.613Z,8.13
2023-03-29T20:14:25.977Z,5.53
2023-03-29T20:16:56.942Z,9.55
2023-03-29T20:19:31.386Z,6.35
2023-03-29T20:22:00.776Z,6.80
2023-03-29T20:24:29.166Z,7.15
2023-03-29T20:26:57.942Z,9.50
2023-03-29T20:29:27.473Z,5.45
2023-03-29T20:31:59.310Z,7.18
2023-03-29T20:34:29.446Z,7.72
2023-03-29T20:37:01.048Z,9.93
2023-03-29T20:39:34.819Z,5.80
2023-03-29T20:42:03.855Z,7.35
2023-03-29T20:44:34.813Z,6.82
2023-03-29T20:47:08.991Z,7.85
2023-03-29T20:49:39.281Z,6.43
2023-03-29T20:52:10.748Z,5.50
2023-03-29T20:54:39.786Z,6.07
2023-03-29T20:57:17.420Z,10.88
2023-03-29T20:59:46.384Z,7.63
2023-03-29T21:02:17.339Z,7.93
2023-03-29T21:04:52.943Z,6.38
2023-03-29T21:07:22.396Z,6.90
2023-03-29T21:09:50.802Z,5.03
2023-03-29T21:12:21.569Z,4.18
2023-03-29T21:14:50.510Z,5.35
2023-03-29T21:17:19.438Z,7.60
2023-03-29T21:19:49.220Z,7.13
2023-03-29T21:22:18.370Z,5.25
2023-03-29T21:24:46.740Z,6.35
2023-03-29T21:27:15.396Z,7.78
2023-03-29T21:29:43.874Z,4.43
2023-03-29T21:32:12.235Z,6.45
2023-03-29T21:34:41.071Z,9.25
2023-03-29T21:37:12.767Z,8.82
2023-03-29T21:39:44.671Z,6.20
2023-03-29T21:42:15.488Z,6.88
2023-03-29T21:44:44.648Z,6.18
2023-03-29T21:47:13.282Z,6.97
2023-03-29T21:49:44.208Z,7.18
2023-03-29T21:52:16.342Z,6.70
2023-03-29T21:54:44.932Z,6.05
2023-03-29T21:57:13.643Z,6.45
2023-03-29T21:59:42.172Z,6.28
2023-03-29T22:02:13.157Z,6.97
2023-03-29T22:04:41.798Z,6.13
2023-03-29T22:07:10.792Z,4.55
2023-03-29T22:09:43.876Z,6.40
2023-03-29T22:12:12.200Z,7.90
2023-03-29T22:14:43.022Z,8.15
2023-03-29T22:17:13.798Z,6.25
2023-03-29T22:19:42.659Z,6.63
2023-03-29T22:22:13.978Z,6.05
2023-03-29T22:24:44.334Z,5.40
2023-03-29T22:27:13.461Z,5.40
2023-03-29T22:29:41.968Z,5.13
2023-03-29T22:32:11.222Z,7.45
2023-03-29T22:34:40.160Z,12.85
2023-03-29T22:37:09.117Z,5.90
2023-03-29T22:39:37.986Z,8.02
2023-03-29T22:42:08.044Z,4.63
2023-03-29T22:44:37.005Z,7.22
2023-03-29T22:47:05.695Z,8.25
2023-03-29T22:49:34.174Z,7.75
2023-03-29T22:52:02.610Z,7.03
2023-03-29T22:54:35.534Z,6.28
2023-03-29T22:57:06.679Z,7.07
2023-03-29T22:59:36.760Z,7.88
2023-03-29T23:02:05.479Z,4.65
2023-03-29T23:04:39.133Z,5.80
2023-03-29T23:07:08.041Z,5.28
2023-03-29T23:09:39.234Z,4.03
2023-03-29T23:12:08.054Z,7.40
2023-03-29T23:14:42.543Z,5.80
2023-03-29T23:17:11.238Z,8.32
2023-03-29T23:19:40.093Z,6.20
2023-03-29T23:22:09.136Z,5.93
2023-03-29T23:24:37.875Z,5.22
2023-03-29T23:27:06.366Z,3.55
2023-03-29T23:29:38.044Z,3.83
2023-03-29T23:32:08.081Z,3.40
2023-03-29T23:34:36.566Z,3.05
2023-03-29T23:37:05.004Z,5.13
2023-03-29T23:39:35.743Z,3.25
2023-03-29T23:42:04.310Z,4.78
2023-03-29T23:44:35.253Z,4.28
2023-03-29T23:47:06.276Z,4.13
2023-03-29T23:49:36.408Z,3.25
2023-03-29T23:52:04.850Z,3.42
2023-03-29T23:54:33.200Z,2.55
2023-03-29T23:57:06.552Z,2.55
2023-03-29T23:59:38.013Z,4.03
